createdAt,value
2018-03-14T00:00:04.060Z,97.6
2018-03-14T00:01:04.709Z,97.7
2018-03-14T00:02:05.360Z,97.9
2018-03-14T00:03:06.009Z,97.4
2018-03-14T00:04:06.696Z,97.4
2018-03-14T00:05:07.345Z,98.1
2018-03-14T00:06:07.996Z,96.9
2018-03-14T00:07:08.646Z,97.9
2018-03-14T00:08:09.296Z,98.1
2018-03-14T00:09:09.948Z,98.0
2018-03-14T00:10:10.598Z,97.5
2018-03-14T00:11:11.251Z,97.2
2018-03-14T00:12:11.935Z,97.9
2018-03-14T00:13:12.588Z,97.8
2018-03-14T00:14:13.238Z,97.9
2018-03-14T00:15:13.895Z,97.8
2018-03-14T00:16:14.538Z,98.0
2018-03-14T00:17:15.188Z,97.6
2018-03-14T00:18:15.838Z,97.8
2018-03-14T00:19:16.489Z,97.6
2018-03-14T00:20:17.138Z,98.0
2018-03-14T00:21:17.788Z,97.7
2018-03-14T00:22:18.443Z,97.6
2018-03-14T00:23:19.088Z,96.9
2018-03-14T00:24:19.740Z,97.0
2018-03-14T00:25:20.390Z,97.2
2018-03-14T00:26:21.040Z,96.7
2018-03-14T00:27:21.690Z,97.0
2018-03-14T00:28:22.418Z,96.5
2018-03-14T00:29:23.028Z,96.4
2018-03-14T00:30:23.679Z,97.4
2018-03-14T00:31:24.329Z,97.8
2018-03-14T00:32:24.979Z,97.1
2018-03-14T00:33:25.630Z,97.0
2018-03-14T00:34:26.281Z,97.5
2018-03-14T00:35:26.931Z,97.7
2018-03-14T00:36:27.581Z,97.6
2018-03-14T00:37:28.231Z,97.4
2018-03-14T00:38:28.883Z,97.5
2018-03-14T00:39:29.533Z,97.6
2018-03-14T00:40:30.184Z,98.0
2018-03-14T00:41:30.833Z,97.8
2018-03-14T00:42:31.485Z,97.4
2018-03-14T00:43:32.134Z,97.9
2018-03-14T00:44:32.785Z,97.8
2018-03-14T00:45:33.437Z,98.4
2018-03-14T00:46:34.125Z,97.6
2018-03-14T00:47:34.774Z,98.4
2018-03-14T00:48:35.424Z,98.0
2018-03-14T00:49:36.076Z,97.7
2018-03-14T00:50:36.725Z,97.6
2018-03-14T00:51:37.377Z,97.2
2018-03-14T00:52:38.026Z,97.6
2018-03-14T00:53:38.676Z,97.7
2018-03-14T00:54:39.326Z,98.1
2018-03-14T00:55:39.976Z,97.9
2018-03-14T00:56:40.627Z,97.6
2018-03-14T00:57:41.276Z,98.4
2018-03-14T00:58:41.927Z,98.6
2018-03-14T00:59:42.576Z,98.5
2018-03-14T01:00:43.228Z,98.6
2018-03-14T01:01:43.877Z,99.6
2018-03-14T01:02:44.530Z,98.4
2018-03-14T01:03:45.217Z,98.5
2018-03-14T01:04:45.865Z,98.8
2018-03-14T01:05:46.517Z,99.0
2018-03-14T01:06:47.166Z,98.6
2018-03-14T01:07:47.860Z,98.2
2018-03-14T01:08:48.466Z,98.1
2018-03-14T01:09:49.114Z,98.6
2018-03-14T01:10:49.765Z,99.3
2018-03-14T01:11:50.415Z,99.3
2018-03-14T01:12:51.065Z,99.3
2018-03-14T01:13:51.715Z,99.4
2018-03-14T01:14:52.366Z,99.1
2018-03-14T01:15:53.016Z,99.2
2018-03-14T01:16:53.669Z,99.4
2018-03-14T01:17:54.354Z,99.2
2018-03-14T01:18:55.003Z,99.3
2018-03-14T01:19:55.654Z,99.4
2018-03-14T01:20:56.305Z,100.0
2018-03-14T01:21:56.957Z,99.6
2018-03-14T01:22:57.606Z,99.5
2018-03-14T01:23:58.257Z,99.4
2018-03-14T01:24:58.908Z,99.4
2018-03-14T01:25:59.558Z,99.3
2018-03-14T01:27:00.207Z,99.6
2018-03-14T01:28:00.857Z,99.2
2018-03-14T01:29:01.515Z,99.4
2018-03-14T01:30:02.162Z,99.3
2018-03-14T01:31:02.811Z,99.3
2018-03-14T01:32:03.460Z,99.3
2018-03-14T01:33:04.113Z,99.4
2018-03-14T01:34:04.761Z,99.4
2018-03-14T01:35:05.412Z,99.4
2018-03-14T01:36:06.063Z,99.4
2018-03-14T01:37:06.713Z,99.9
2018-03-14T01:38:07.363Z,99.9
2018-03-14T01:39:08.013Z,99.6
2018-03-14T01:40:08.664Z,99.5
2018-03-14T01:41:09.314Z,99.8
2018-03-14T01:42:09.964Z,99.5
2018-03-14T01:43:10.614Z,99.5
2018-03-14T01:44:11.265Z,99.4
2018-03-14T01:45:11.913Z,99.5
2018-03-14T01:46:12.565Z,100.0
2018-03-14T01:47:13.215Z,99.3
2018-03-14T01:48:13.902Z,99.3
2018-03-14T01:49:14.552Z,98.8
2018-03-14T01:50:15.202Z,99.1
2018-03-14T01:51:15.854Z,99.1
2018-03-14T01:52:16.503Z,99.0
2018-03-14T01:53:17.153Z,98.8
2018-03-14T01:54:17.805Z,99.3
2018-03-14T01:55:18.490Z,99.6
2018-03-14T01:56:19.140Z,99.8
2018-03-14T01:57:19.790Z,99.1
2018-03-14T01:58:20.441Z,99.4
2018-03-14T01:59:21.091Z,99.2
2018-03-14T02:00:21.741Z,99.7
2018-03-14T02:01:22.392Z,99.8
2018-03-14T02:02:23.042Z,100.0
2018-03-14T02:03:23.691Z,98.2
2018-03-14T02:04:24.341Z,98.0
2018-03-14T02:05:24.993Z,97.8
2018-03-14T02:06:25.643Z,97.5
2018-03-14T02:07:26.294Z,98.0
2018-03-14T02:08:26.941Z,97.9
2018-03-14T02:09:27.632Z,98.0
2018-03-14T02:10:28.282Z,98.6
2018-03-14T02:11:28.928Z,98.4
2018-03-14T02:12:29.578Z,98.2
2018-03-14T02:13:30.227Z,98.6
2018-03-14T02:14:30.877Z,97.9
2018-03-14T02:15:31.526Z,98.0
2018-03-14T02:16:32.176Z,97.9
2018-03-14T02:17:32.826Z,98.4
2018-03-14T02:18:33.475Z,98.4
2018-03-14T02:19:34.127Z,97.8
2018-03-14T02:20:34.776Z,97.7
2018-03-14T02:21:35.427Z,97.6
2018-03-14T02:22:36.076Z,97.7
2018-03-14T02:23:36.726Z,97.6
2018-03-14T02:24:37.376Z,97.8
2018-03-14T02:25:38.026Z,97.8
2018-03-14T02:26:38.676Z,97.4
2018-03-14T02:27:39.327Z,97.5
2018-03-14T02:28:39.975Z,96.7
2018-03-14T02:29:40.623Z,97.2
2018-03-14T02:30:41.275Z,97.1
2018-03-14T02:31:41.924Z,96.9
2018-03-14T02:32:42.575Z,97.2
2018-03-14T02:33:43.224Z,97.5
2018-03-14T02:34:43.876Z,97.1
2018-03-14T02:35:44.525Z,97.1
2018-03-14T02:36:45.176Z,96.6
2018-03-14T02:37:45.832Z,97.3
2018-03-14T02:38:46.476Z,97.0
2018-03-14T02:39:47.127Z,97.0
2018-03-14T02:40:47.774Z,96.5
2018-03-14T02:41:48.425Z,96.6
2018-03-14T02:42:49.073Z,96.2
2018-03-14T02:43:49.723Z,96.0
2018-03-14T02:44:50.372Z,96.1
2018-03-14T02:45:51.022Z,95.5
2018-03-14T02:46:51.673Z,95.3
2018-03-14T02:47:52.327Z,95.8
2018-03-14T02:48:52.974Z,95.6
2018-03-14T02:49:53.623Z,95.2
2018-03-14T02:50:54.274Z,94.7
2018-03-14T02:51:54.923Z,95.1
2018-03-14T02:52:55.574Z,95.3
2018-03-14T02:53:56.227Z,95.0
2018-03-14T02:54:56.875Z,94.4
2018-03-14T02:55:57.527Z,94.8
2018-03-14T02:56:58.176Z,94.3
2018-03-14T02:57:58.825Z,94.4
2018-03-14T02:58:59.477Z,93.9
2018-03-14T03:00:00.126Z,94.4
2018-03-14T03:01:00.776Z,93.8
2018-03-14T03:02:01.432Z,93.9
2018-03-14T03:03:02.078Z,93.3
2018-03-14T03:04:02.730Z,93.2
2018-03-14T03:05:03.435Z,93.9
2018-03-14T03:06:04.067Z,93.8
2018-03-14T03:07:04.718Z,93.2
2018-03-14T03:08:05.368Z,92.8
2018-03-14T03:09:06.021Z,92.4
2018-03-14T03:10:06.706Z,92.6
2018-03-14T03:11:07.357Z,93.3
2018-03-14T03:12:08.006Z,93.0
2018-03-14T03:13:08.656Z,93.3
2018-03-14T03:14:09.310Z,92.9
2018-03-14T03:15:09.993Z,93.5
2018-03-14T03:16:10.643Z,92.6
2018-03-14T03:17:11.293Z,93.3
2018-03-14T03:18:11.944Z,92.7
2018-03-14T03:19:12.593Z,93.0
2018-03-14T03:20:13.244Z,92.9
2018-03-14T03:21:13.894Z,92.9
2018-03-14T03:22:14.543Z,92.9
2018-03-14T03:23:15.243Z,92.4
2018-03-14T03:24:15.893Z,91.9
2018-03-14T03:25:16.547Z,92.3
2018-03-14T03:26:17.192Z,92.5
2018-03-14T03:27:17.843Z,92.6
2018-03-14T03:28:18.492Z,92.8
2018-03-14T03:29:19.144Z,92.9
2018-03-14T03:30:19.794Z,93.5
2018-03-14T03:31:20.443Z,92.6
2018-03-14T03:32:21.093Z,93.2
2018-03-14T03:33:21.744Z,93.0
2018-03-14T03:34:22.393Z,93.6
2018-03-14T03:35:23.044Z,93.5
2018-03-14T03:36:23.695Z,93.0
2018-03-14T03:37:24.343Z,93.6
2018-03-14T03:38:24.994Z,93.2
2018-03-14T03:39:25.644Z,92.9
2018-03-14T03:40:26.295Z,93.2
2018-03-14T03:41:26.944Z,93.3
2018-03-14T03:42:27.595Z,93.0
2018-03-14T03:43:28.245Z,93.1
2018-03-14T03:44:28.896Z,92.8
2018-03-14T03:45:29.545Z,93.1
2018-03-14T03:46:30.213Z,93.0
2018-03-14T03:47:30.846Z,93.2
2018-03-14T03:48:31.501Z,93.0
2018-03-14T03:49:32.183Z,92.7
2018-03-14T03:50:32.833Z,92.6
2018-03-14T03:51:33.483Z,92.5
2018-03-14T03:52:34.131Z,92.4
2018-03-14T03:53:34.817Z,92.6
2018-03-14T03:54:35.432Z,92.9
2018-03-14T03:55:36.081Z,92.8
2018-03-14T03:56:36.732Z,92.7
2018-03-14T03:57:37.419Z,93.2
2018-03-14T03:58:38.070Z,93.6
2018-03-14T03:59:38.720Z,93.4
2018-03-14T04:00:39.416Z,93.0
2018-03-14T04:01:40.022Z,93.2
2018-03-14T04:02:40.672Z,93.2
2018-03-14T04:03:41.359Z,93.2
2018-03-14T04:04:42.010Z,93.4
2018-03-14T04:05:42.661Z,93.8
2018-03-14T04:06:43.311Z,94.1
2018-03-14T04:07:43.959Z,93.4
2018-03-14T04:08:44.614Z,93.6
2018-03-14T04:09:45.298Z,93.2
2018-03-14T04:10:45.948Z,93.6
2018-03-14T04:11:46.600Z,93.2
2018-03-14T04:12:47.251Z,93.5
2018-03-14T04:13:47.901Z,93.2
2018-03-14T04:14:48.550Z,94.2
2018-03-14T04:15:49.202Z,93.9
2018-03-14T04:16:49.851Z,93.8
2018-03-14T04:17:50.501Z,94.0
2018-03-14T04:18:51.151Z,93.9
2018-03-14T04:19:51.802Z,94.3
2018-03-14T04:20:52.452Z,94.0
2018-03-14T04:21:53.102Z,94.2
2018-03-14T04:22:53.753Z,94.0
2018-03-14T04:23:54.455Z,94.0
2018-03-14T04:24:55.053Z,94.5
2018-03-14T04:25:55.702Z,94.8
2018-03-14T04:26:56.353Z,95.3
2018-03-14T04:27:57.004Z,95.3
2018-03-14T04:28:57.659Z,94.7
2018-03-14T04:29:58.303Z,94.9
2018-03-14T04:30:58.954Z,94.9
2018-03-14T04:31:59.603Z,95.2
2018-03-14T04:33:00.290Z,95.6
2018-03-14T04:34:00.942Z,96.3
2018-03-14T04:35:01.593Z,96.2
2018-03-14T04:36:02.245Z,95.7
2018-03-14T04:37:02.894Z,96.1
2018-03-14T04:38:03.546Z,96.5
2018-03-14T04:39:04.232Z,97.1
2018-03-14T04:40:04.882Z,97.3
2018-03-14T04:41:05.532Z,96.5
2018-03-14T04:42:06.182Z,96.8
2018-03-14T04:43:06.833Z,96.5
2018-03-14T04:44:07.483Z,97.2
2018-03-14T04:45:08.133Z,96.5
2018-03-14T04:46:08.788Z,96.8
2018-03-14T04:47:09.433Z,95.9
2018-03-14T04:48:10.084Z,96.2
2018-03-14T04:49:10.734Z,95.9
2018-03-14T04:50:11.383Z,96.4
2018-03-14T04:51:12.036Z,96.8
2018-03-14T04:52:12.721Z,96.9
2018-03-14T04:53:13.407Z,97.3
2018-03-14T04:54:14.107Z,97.6
2018-03-14T04:55:14.758Z,96.3
2018-03-14T04:56:15.407Z,96.8
2018-03-14T04:57:16.059Z,96.0
2018-03-14T04:58:16.715Z,96.6
2018-03-14T04:59:17.395Z,96.5
2018-03-14T05:00:18.045Z,96.0
2018-03-14T05:01:18.697Z,96.2
2018-03-14T05:02:19.379Z,96.5
2018-03-14T05:03:19.997Z,96.5
2018-03-14T05:04:20.645Z,97.2
2018-03-14T05:05:21.295Z,97.2
2018-03-14T05:06:21.946Z,98.1
2018-03-14T05:07:22.636Z,98.2
2018-03-14T05:08:23.246Z,98.2
2018-03-14T05:09:23.896Z,98.1
2018-03-14T05:10:24.547Z,97.7
2018-03-14T05:11:25.195Z,97.5
2018-03-14T05:12:25.845Z,98.1
2018-03-14T05:13:26.496Z,97.8
2018-03-14T05:14:27.145Z,97.8
2018-03-14T05:15:27.796Z,98.2
2018-03-14T05:16:28.446Z,98.9
2018-03-14T05:17:29.097Z,98.9
2018-03-14T05:18:29.746Z,99.7
2018-03-14T05:19:30.398Z,100.0
2018-03-14T05:20:31.050Z,100.0
2018-03-14T05:21:31.737Z,99.3
2018-03-14T05:22:32.398Z,99.0
2018-03-14T05:23:33.048Z,99.4
2018-03-14T05:24:33.698Z,99.5
2018-03-14T05:25:34.350Z,99.6
2018-03-14T05:26:35.001Z,100.0
2018-03-14T05:27:35.655Z,100.0
2018-03-14T05:28:36.306Z,100.0
2018-03-14T05:29:36.959Z,100.0
2018-03-14T05:30:37.612Z,100.0
2018-03-14T05:31:38.261Z,100.0
2018-03-14T05:32:38.911Z,99.9
2018-03-14T05:33:39.564Z,99.8
2018-03-14T05:34:40.213Z,99.4
2018-03-14T05:35:40.867Z,100.0
2018-03-14T05:36:41.520Z,100.0
2018-03-14T05:37:42.174Z,100.0
2018-03-14T05:38:42.828Z,100.0
2018-03-14T05:39:43.480Z,100.0
2018-03-14T05:40:44.133Z,100.0
2018-03-14T05:41:44.786Z,99.5
2018-03-14T05:42:45.477Z,100.0
2018-03-14T05:43:46.134Z,99.6
2018-03-14T05:44:46.820Z,99.2
2018-03-14T05:45:47.473Z,99.3
2018-03-14T05:46:48.125Z,99.7
2018-03-14T05:47:48.833Z,99.6
2018-03-14T05:48:49.428Z,99.6
2018-03-14T05:49:50.086Z,100.0
2018-03-14T05:50:50.735Z,100.0
2018-03-14T05:51:51.388Z,100.0
2018-03-14T05:52:52.044Z,99.7
2018-03-14T05:53:52.692Z,100.0
2018-03-14T05:54:53.596Z,100.0
2018-03-14T05:55:54.248Z,100.0
2018-03-14T05:56:54.902Z,100.0
2018-03-14T05:57:55.555Z,100.0
2018-03-14T05:58:56.206Z,99.7
2018-03-14T05:59:56.860Z,100.0
2018-03-14T06:00:57.514Z,100.0
2018-03-14T06:01:58.167Z,99.7
2018-03-14T06:02:58.819Z,100.0
2018-03-14T06:03:59.472Z,100.0
2018-03-14T06:05:00.125Z,99.8
2018-03-14T06:06:00.777Z,100.0
2018-03-14T06:07:01.433Z,100.0
2018-03-14T06:08:02.087Z,99.5
2018-03-14T06:09:02.774Z,99.7
2018-03-14T06:10:03.428Z,100.0
2018-03-14T06:11:04.082Z,100.0
2018-03-14T06:12:04.779Z,99.5
2018-03-14T06:13:05.422Z,99.9
2018-03-14T06:14:06.075Z,100.0
2018-03-14T06:15:06.730Z,100.0
2018-03-14T06:16:07.381Z,99.9
2018-03-14T06:17:08.071Z,100.0
2018-03-14T06:18:08.724Z,100.0
2018-03-14T06:19:09.380Z,99.9
2018-03-14T06:20:10.036Z,100.0
2018-03-14T06:21:10.690Z,100.0
2018-03-14T06:22:11.344Z,100.0
2018-03-14T06:23:12.037Z,100.0
2018-03-14T06:24:12.697Z,100.0
2018-03-14T06:25:13.348Z,100.0
2018-03-14T06:26:14.004Z,100.0
2018-03-14T06:27:14.658Z,100.0
2018-03-14T06:28:15.310Z,100.0
2018-03-14T06:29:16.002Z,100.0
2018-03-14T06:30:16.656Z,100.0
2018-03-14T06:31:17.312Z,100.0
2018-03-14T06:32:17.964Z,100.0
2018-03-14T06:33:18.618Z,100.0
2018-03-14T06:34:19.273Z,100.0
2018-03-14T06:35:19.931Z,100.0
2018-03-14T06:36:20.586Z,99.6
2018-03-14T06:37:21.240Z,99.8
2018-03-14T06:38:21.894Z,100.0
2018-03-14T06:39:22.546Z,99.5
2018-03-14T06:40:23.200Z,99.4
2018-03-14T06:41:23.852Z,99.8
2018-03-14T06:42:24.510Z,99.8
2018-03-14T06:43:25.159Z,99.1
2018-03-14T06:44:25.815Z,99.6
2018-03-14T06:45:26.465Z,99.1
2018-03-14T06:46:27.118Z,99.3
2018-03-14T06:47:27.776Z,98.8
2018-03-14T06:48:28.425Z,99.2
2018-03-14T06:49:29.078Z,99.2
2018-03-14T06:50:29.767Z,99.3
2018-03-14T06:51:30.422Z,99.3
2018-03-14T06:52:31.080Z,99.1
2018-03-14T06:53:31.733Z,98.6
2018-03-14T06:54:32.386Z,98.7
2018-03-14T06:55:33.043Z,97.8
2018-03-14T06:56:33.733Z,98.1
2018-03-14T06:57:34.389Z,98.0
2018-03-14T06:58:35.043Z,98.3
2018-03-14T06:59:35.704Z,98.2
2018-03-14T07:00:36.440Z,98.2
2018-03-14T07:01:37.130Z,97.8
2018-03-14T07:02:37.786Z,97.8
2018-03-14T07:03:38.441Z,98.0
2018-03-14T07:04:39.095Z,97.9
2018-03-14T07:05:39.750Z,97.1
2018-03-14T07:06:40.406Z,97.5
2018-03-14T07:07:41.062Z,97.3
2018-03-14T07:08:41.753Z,96.8
2018-03-14T07:09:42.409Z,97.0
2018-03-14T07:10:43.063Z,96.6
2018-03-14T07:11:43.718Z,96.6
2018-03-14T07:12:44.373Z,96.3
2018-03-14T07:13:45.030Z,95.9
2018-03-14T07:14:45.682Z,95.8
2018-03-14T07:15:46.337Z,96.4
2018-03-14T07:16:46.991Z,96.1
2018-03-14T07:17:47.648Z,96.4
2018-03-14T07:18:48.302Z,95.8
2018-03-14T07:19:48.959Z,95.8
2018-03-14T07:20:49.614Z,94.7
2018-03-14T07:21:50.270Z,95.0
2018-03-14T07:22:50.929Z,94.2
2018-03-14T07:23:51.581Z,95.1
2018-03-14T07:24:52.235Z,95.3
2018-03-14T07:25:52.890Z,94.7
2018-03-14T07:26:53.547Z,95.0
2018-03-14T07:27:54.203Z,94.9
2018-03-14T07:28:54.854Z,94.7
2018-03-14T07:29:55.511Z,94.1
2018-03-14T07:30:56.166Z,94.2
2018-03-14T07:31:56.821Z,94.1
2018-03-14T07:32:57.477Z,93.9
2018-03-14T07:33:58.132Z,94.3
2018-03-14T07:34:58.789Z,93.0
2018-03-14T07:35:59.480Z,92.6
2018-03-14T07:37:00.138Z,93.0
2018-03-14T07:38:00.797Z,92.6
2018-03-14T07:39:01.454Z,92.4
2018-03-14T07:40:02.113Z,92.8
2018-03-14T07:41:02.818Z,92.5
2018-03-14T07:42:03.474Z,91.9
2018-03-14T07:43:04.167Z,91.7
2018-03-14T07:44:04.823Z,91.8
2018-03-14T07:45:05.516Z,90.7
2018-03-14T07:46:06.172Z,90.9
2018-03-14T07:47:06.828Z,90.8
2018-03-14T07:48:07.485Z,90.0
2018-03-14T07:49:08.141Z,89.4
2018-03-14T07:50:08.802Z,89.8
2018-03-14T07:51:09.544Z,89.8
2018-03-14T07:52:10.201Z,89.2
2018-03-14T07:53:10.858Z,89.0
2018-03-14T07:54:11.515Z,88.9
2018-03-14T07:55:12.173Z,89.3
2018-03-14T07:56:12.830Z,88.8
2018-03-14T07:57:13.484Z,89.2
2018-03-14T07:58:14.141Z,89.2
2018-03-14T07:59:14.798Z,89.4
2018-03-14T08:00:15.455Z,89.1
2018-03-14T08:01:16.113Z,88.2
2018-03-14T08:02:16.771Z,87.9
2018-03-14T08:03:17.425Z,88.2
2018-03-14T08:04:18.082Z,87.8
2018-03-14T08:05:18.740Z,86.8
2018-03-14T08:06:19.396Z,87.0
2018-03-14T08:07:20.051Z,87.0
2018-03-14T08:08:20.709Z,86.4
2018-03-14T08:09:21.368Z,86.6
2018-03-14T08:10:22.024Z,85.2
2018-03-14T08:11:22.683Z,85.2
2018-03-14T08:12:23.339Z,85.7
2018-03-14T08:13:24.016Z,85.5
2018-03-14T08:14:24.653Z,85.7
2018-03-14T08:15:25.311Z,86.6
2018-03-14T08:16:25.967Z,86.2
2018-03-14T08:17:26.626Z,85.9
2018-03-14T08:18:27.317Z,85.7
2018-03-14T08:19:27.979Z,85.8
2018-03-14T08:20:28.632Z,85.7
2018-03-14T08:21:29.289Z,85.4
2018-03-14T08:22:29.945Z,84.9
2018-03-14T08:23:30.602Z,85.8
2018-03-14T08:24:31.259Z,85.9
2018-03-14T08:25:31.914Z,85.9
2018-03-14T08:26:32.571Z,86.5
2018-03-14T08:27:33.229Z,85.5
2018-03-14T08:28:33.883Z,86.0
2018-03-14T08:29:34.544Z,85.9
2018-03-14T08:30:35.203Z,85.3
2018-03-14T08:31:35.857Z,85.3
2018-03-14T08:32:36.512Z,85.9
2018-03-14T08:33:37.169Z,84.8
2018-03-14T08:34:37.826Z,84.9
2018-03-14T08:35:38.484Z,85.5
2018-03-14T08:36:39.143Z,85.2
2018-03-14T08:37:39.805Z,85.9
2018-03-14T08:38:40.455Z,85.8
2018-03-14T08:39:41.113Z,86.0
2018-03-14T08:40:41.769Z,85.6
2018-03-14T08:41:42.426Z,85.7
2018-03-14T08:42:43.084Z,86.2
2018-03-14T08:43:43.739Z,86.5
2018-03-14T08:44:44.396Z,84.8
2018-03-14T08:45:45.055Z,84.6
2018-03-14T08:46:45.716Z,85.2
2018-03-14T08:47:46.370Z,85.2
2018-03-14T08:48:47.028Z,84.9
2018-03-14T08:49:47.689Z,84.6
2018-03-14T08:50:48.343Z,84.7
2018-03-14T08:51:48.998Z,84.8
2018-03-14T08:52:49.660Z,83.5
2018-03-14T08:53:50.313Z,83.5
2018-03-14T08:54:50.970Z,82.7
2018-03-14T08:55:51.630Z,82.2
2018-03-14T08:56:52.288Z,82.6
2018-03-14T08:57:52.945Z,82.1
2018-03-14T08:58:53.606Z,81.6
2018-03-14T08:59:54.260Z,82.2
2018-03-14T09:00:54.917Z,81.9
2018-03-14T09:01:55.575Z,81.6
2018-03-14T09:02:56.236Z,81.2
2018-03-14T09:03:56.893Z,81.1
2018-03-14T09:04:57.551Z,80.6
2018-03-14T09:05:58.246Z,81.7
2018-03-14T09:06:58.938Z,81.1
2018-03-14T09:07:59.597Z,80.6
2018-03-14T09:09:00.290Z,81.2
2018-03-14T09:10:00.948Z,81.5
2018-03-14T09:11:01.607Z,81.2
2018-03-14T09:12:02.266Z,80.3
2018-03-14T09:13:02.923Z,79.7
2018-03-14T09:14:03.583Z,79.7
2018-03-14T09:15:04.241Z,80.0
2018-03-14T09:16:04.900Z,80.5
2018-03-14T09:17:05.556Z,81.0
2018-03-14T09:18:06.215Z,80.6
2018-03-14T09:19:06.872Z,80.2
2018-03-14T09:20:07.531Z,80.2
2018-03-14T09:21:08.191Z,80.2
2018-03-14T09:22:08.897Z,79.6
2018-03-14T09:23:09.554Z,79.9
2018-03-14T09:24:10.249Z,79.7
2018-03-14T09:25:10.905Z,79.7
2018-03-14T09:26:11.562Z,78.8
2018-03-14T09:27:12.219Z,80.7
2018-03-14T09:28:12.877Z,80.5
2018-03-14T09:29:13.534Z,81.0
2018-03-14T09:30:14.191Z,81.5
2018-03-14T09:31:14.848Z,81.2
2018-03-14T09:32:15.507Z,81.2
2018-03-14T09:33:16.196Z,80.7
2018-03-14T09:34:16.822Z,81.6
2018-03-14T09:35:17.480Z,80.8
2018-03-14T09:36:18.138Z,80.9
2018-03-14T09:37:18.794Z,80.8
2018-03-14T09:38:19.451Z,81.6
2018-03-14T09:39:20.107Z,81.7
2018-03-14T09:40:20.763Z,82.4
2018-03-14T09:41:21.421Z,81.6
2018-03-14T09:42:22.114Z,81.6
2018-03-14T09:43:22.772Z,81.1
2018-03-14T09:44:23.427Z,81.1
2018-03-14T09:45:24.086Z,81.2
2018-03-14T09:46:24.744Z,80.3
2018-03-14T09:47:25.402Z,80.4
2018-03-14T09:48:26.058Z,80.2
2018-03-14T09:49:26.716Z,79.4
2018-03-14T09:50:27.374Z,79.6
2018-03-14T09:51:28.034Z,79.7
2018-03-14T09:52:28.689Z,80.0
2018-03-14T09:53:29.349Z,79.8
2018-03-14T09:54:30.005Z,79.3
2018-03-14T09:55:30.666Z,78.9
2018-03-14T09:56:31.321Z,78.4
2018-03-14T09:57:31.979Z,76.6
2018-03-14T09:58:32.636Z,74.4
2018-03-14T09:59:33.295Z,74.0
2018-03-14T10:00:33.956Z,73.3
2018-03-14T10:01:34.621Z,73.2
2018-03-14T10:02:35.273Z,73.7
2018-03-14T10:03:35.931Z,73.2
2018-03-14T10:04:36.589Z,72.2
2018-03-14T10:05:37.247Z,72.0
2018-03-14T10:06:37.907Z,72.2
2018-03-14T10:07:38.613Z,72.5
2018-03-14T10:08:39.272Z,72.2
2018-03-14T10:09:39.932Z,72.4
2018-03-14T10:10:40.592Z,72.1
2018-03-14T10:11:41.246Z,71.1
2018-03-14T10:12:41.905Z,71.0
2018-03-14T10:13:42.564Z,70.6
2018-03-14T10:14:43.219Z,70.8
2018-03-14T10:15:43.879Z,71.2
2018-03-14T10:16:44.539Z,71.6
2018-03-14T10:17:45.197Z,70.9
2018-03-14T10:18:45.855Z,71.6
2018-03-14T10:19:46.513Z,72.2
2018-03-14T10:20:47.171Z,72.3
2018-03-14T10:21:47.851Z,72.0
2018-03-14T10:22:48.486Z,72.5
2018-03-14T10:23:49.144Z,73.1
2018-03-14T10:24:49.808Z,72.0
2018-03-14T10:25:50.580Z,73.0
2018-03-14T10:26:51.114Z,74.0
2018-03-14T10:27:51.771Z,73.9
2018-03-14T10:28:52.429Z,73.5
2018-03-14T10:29:53.088Z,73.7
2018-03-14T10:30:53.748Z,73.3
2018-03-14T10:31:54.441Z,72.3
2018-03-14T10:32:55.100Z,73.1
2018-03-14T10:33:55.760Z,72.5
2018-03-14T10:34:56.414Z,72.7
2018-03-14T10:35:57.074Z,72.8
2018-03-14T10:36:57.766Z,72.9
2018-03-14T10:37:58.422Z,73.6
2018-03-14T10:38:59.080Z,73.3
2018-03-14T10:39:59.736Z,73.7
2018-03-14T10:41:00.392Z,73.4
2018-03-14T10:42:01.052Z,73.5
2018-03-14T10:43:01.710Z,73.3
2018-03-14T10:44:02.368Z,73.0
2018-03-14T10:45:03.027Z,72.7
2018-03-14T10:46:03.720Z,73.1
2018-03-14T10:47:04.380Z,73.0
2018-03-14T10:48:05.037Z,74.2
2018-03-14T10:49:05.694Z,74.3
2018-03-14T10:50:06.349Z,74.4
2018-03-14T10:51:07.007Z,73.9
2018-03-14T10:52:07.700Z,73.5
2018-03-14T10:53:08.408Z,73.2
2018-03-14T10:54:09.065Z,73.7
2018-03-14T10:55:09.723Z,73.4
2018-03-14T10:56:10.380Z,73.2
2018-03-14T10:57:11.038Z,73.6
2018-03-14T10:58:11.695Z,72.8
2018-03-14T10:59:12.354Z,72.4
2018-03-14T11:00:13.011Z,71.8
2018-03-14T11:01:13.672Z,72.1
2018-03-14T11:02:14.363Z,72.2
2018-03-14T11:03:15.020Z,72.3
2018-03-14T11:04:15.678Z,71.5
2018-03-14T11:05:16.337Z,72.0
2018-03-14T11:06:16.995Z,71.7
2018-03-14T11:07:17.653Z,71.1
2018-03-14T11:08:18.311Z,70.5
2018-03-14T11:09:18.968Z,69.8
2018-03-14T11:10:19.626Z,69.8
2018-03-14T11:11:20.284Z,69.7
2018-03-14T11:12:20.941Z,69.2
2018-03-14T11:13:21.600Z,69.2
2018-03-14T11:14:22.258Z,68.8
2018-03-14T11:15:22.915Z,69.1
2018-03-14T11:16:23.574Z,68.5
2018-03-14T11:17:24.230Z,68.3
2018-03-14T11:18:24.889Z,68.3
2018-03-14T11:19:25.549Z,69.0
2018-03-14T11:20:26.257Z,69.2
2018-03-14T11:21:26.888Z,70.2
2018-03-14T11:22:27.520Z,69.6
2018-03-14T11:23:28.177Z,69.3
2018-03-14T11:24:28.835Z,69.0
2018-03-14T11:25:29.494Z,68.1
2018-03-14T11:26:30.151Z,67.5
2018-03-14T11:27:30.811Z,67.5
2018-03-14T11:28:31.472Z,68.0
2018-03-14T11:29:32.164Z,66.4
2018-03-14T11:30:32.821Z,66.1
2018-03-14T11:31:33.480Z,66.1
2018-03-14T11:32:34.137Z,66.1
2018-03-14T11:33:34.796Z,65.0
2018-03-14T11:34:35.455Z,64.2
2018-03-14T11:35:36.115Z,64.5
2018-03-14T11:36:36.773Z,64.3
2018-03-14T11:37:37.430Z,64.2
2018-03-14T11:38:38.092Z,63.4
2018-03-14T11:39:38.747Z,63.5
2018-03-14T11:40:39.410Z,63.2
2018-03-14T11:41:40.070Z,62.0
2018-03-14T11:42:40.732Z,62.0
2018-03-14T11:43:41.390Z,62.6
2018-03-14T11:44:42.073Z,62.1
2018-03-14T11:45:42.709Z,61.7
2018-03-14T11:46:43.374Z,60.7
2018-03-14T11:47:44.029Z,60.7
2018-03-14T11:48:44.691Z,61.3
2018-03-14T11:49:45.361Z,60.4
2018-03-14T11:50:46.063Z,60.8
2018-03-14T11:51:46.746Z,60.8
2018-03-14T11:52:47.407Z,59.9
2018-03-14T11:53:48.070Z,60.0
2018-03-14T11:54:48.731Z,59.8
2018-03-14T11:55:49.389Z,58.6
2018-03-14T11:56:50.056Z,58.9
2018-03-14T11:57:50.746Z,58.0
2018-03-14T11:58:51.405Z,58.1
2018-03-14T11:59:52.066Z,58.8
2018-03-14T12:00:52.726Z,58.7
2018-03-14T12:01:53.425Z,59.2
2018-03-14T12:02:54.125Z,59.2
2018-03-14T12:03:54.871Z,59.9
2018-03-14T12:04:55.532Z,60.1
2018-03-14T12:05:56.191Z,58.6
2018-03-14T12:06:56.851Z,59.0
2018-03-14T12:07:57.510Z,59.5
2018-03-14T12:08:58.168Z,58.8
2018-03-14T12:09:58.830Z,58.7
2018-03-14T12:10:59.487Z,58.7
2018-03-14T12:12:00.144Z,58.5
2018-03-14T12:13:00.804Z,58.2
2018-03-14T12:14:01.467Z,58.4
2018-03-14T12:15:02.127Z,58.8
2018-03-14T12:16:02.787Z,59.3
2018-03-14T12:17:03.450Z,58.1
2018-03-14T12:18:04.109Z,58.0
2018-03-14T12:19:04.774Z,57.8
2018-03-14T12:20:05.429Z,57.2
2018-03-14T12:21:06.089Z,56.8
2018-03-14T12:22:06.750Z,55.9
2018-03-14T12:23:07.411Z,55.5
2018-03-14T12:24:08.123Z,55.6
2018-03-14T12:25:08.782Z,55.8
2018-03-14T12:26:09.444Z,54.8
2018-03-14T12:27:10.103Z,54.7
2018-03-14T12:28:10.765Z,55.6
2018-03-14T12:29:11.427Z,54.7
2018-03-14T12:30:12.087Z,55.6
2018-03-14T12:31:12.747Z,55.2
2018-03-14T12:32:13.407Z,55.4
2018-03-14T12:33:14.069Z,54.6
2018-03-14T12:34:14.729Z,54.1
2018-03-14T12:35:15.389Z,54.1
2018-03-14T12:36:16.049Z,53.6
2018-03-14T12:37:16.712Z,53.9
2018-03-14T12:38:17.372Z,53.4
2018-03-14T12:39:18.032Z,53.4
2018-03-14T12:40:18.692Z,52.5
2018-03-14T12:41:19.352Z,52.5
2018-03-14T12:42:20.015Z,52.0
2018-03-14T12:43:20.674Z,52.1
2018-03-14T12:44:21.335Z,52.4
2018-03-14T12:45:21.996Z,52.8
2018-03-14T12:46:22.659Z,51.2
2018-03-14T12:47:23.320Z,51.5
2018-03-14T12:48:23.981Z,51.6
2018-03-14T12:49:24.641Z,51.2
2018-03-14T12:50:25.344Z,50.9
2018-03-14T12:51:25.962Z,51.4
2018-03-14T12:52:26.622Z,50.7
2018-03-14T12:53:27.284Z,50.8
2018-03-14T12:54:27.945Z,51.3
2018-03-14T12:55:28.641Z,51.3
2018-03-14T12:56:29.300Z,50.7
2018-03-14T12:57:29.961Z,50.4
2018-03-14T12:58:30.621Z,51.0
2018-03-14T12:59:31.283Z,51.2
2018-03-14T13:00:31.944Z,49.7
2018-03-14T13:01:32.607Z,50.4
2018-03-14T13:02:33.267Z,50.5
2018-03-14T13:03:33.927Z,50.3
2018-03-14T13:04:34.587Z,50.7
2018-03-14T13:05:35.249Z,52.1
2018-03-14T13:06:35.912Z,52.5
2018-03-14T13:07:36.611Z,52.0
2018-03-14T13:08:37.273Z,51.2
2018-03-14T13:09:37.935Z,51.9
2018-03-14T13:10:38.598Z,51.8
2018-03-14T13:11:39.330Z,52.4
2018-03-14T13:12:39.923Z,52.4
2018-03-14T13:13:40.618Z,52.7
2018-03-14T13:14:41.278Z,53.2
2018-03-14T13:15:41.939Z,53.4
2018-03-14T13:16:42.601Z,53.4
2018-03-14T13:17:43.264Z,53.4
2018-03-14T13:18:43.927Z,53.8
2018-03-14T13:19:44.586Z,53.9
2018-03-14T13:20:45.246Z,54.6
2018-03-14T13:21:45.905Z,53.8
2018-03-14T13:22:46.568Z,54.8
2018-03-14T13:23:47.233Z,54.6
2018-03-14T13:24:47.892Z,54.7